General Aviation Weather

Text Reports

Enter one or more of the following location identifiers separated by a space:

Zip Code, Four-Character ICAO or Three-Character IATA airport codes.

METAR - Aviation Routine Weather Report
YMAV - Avalon,
Updated at 8:00 AM GMT on May 24, 2015 (6:00 PM AEST):
METAR YMAV 240800Z AUTO 01004KT 9999 // NCD 09/06 Q1030
TAF - Terminal Area Forecast
YMAV - Avalon,
Updated at 8:00 AM GMT on May 24, 2015 (6:00 PM AEST):
TAF YMAV 232311Z 2400/2424 34006KT CAVOK RMK=
Decoded:
ID: YMAV
REPORT TIME: 23 23:11
VALID TIME: 24 May AT 00:00Z to 24 May AT 24:00Z.
INITIAL WX
   WINDS: 340 AT 6
   WEATHER: CAVOK_RMK
   COMMENTS: = 

PIREP - Pilot Weather Report
YMAV - Avalon,
Updated at 8:00 AM GMT on May 24, 2015 (6:00 PM AEST):
No PIREP is currently available for this location.
AIRMET - Airmens Meteorological Information
YMAV - Avalon,
Updated at 8:00 AM GMT on May 24, 2015 (6:00 PM AEST):
No AIRMET is currently available for this location.
SIGMET - Significant Meteorological Information
YMAV - Avalon,
Updated at 8:00 AM GMT on May 24, 2015 (6:00 PM AEST):
No SIGMET is currently available for this location.
NOTAM - Notice to Airmen
YMAV - Avalon,
Updated at 8:00 AM GMT on May 24, 2015 (6:00 PM AEST):
No NOTAM is currently available for this location.
Forecast Area
YMAV - Avalon,
Updated at 8:00 AM GMT on May 24, 2015 (6:00 PM AEST):
No NOTAM is currently available for this location.
Aviation Weather Maps